Medicine Hat Airport, Alberta

Past 24 Hour Conditions

Date / Time
(MDT)
Conditions Temp
(°F)
Humidity
(%)
Dew Point
(°F)
Wind
(mph)
Pressure
(inches)
Vis
(mi)
Wind Chill
30 October 2014
12:00 Cloudy 35 95 34 ENE 5 30.4 15 *
11:00 Mist 33 100 33 E 9 30.4 3 *
10:00 Mist 32 100 32 E 8 30.4 0.7 25
9:00 Ice Fog 32 100 32 ENE 10 30.4 0.5 23
8:00 Light Freezing Drizzle 32 100 32 NE 14 30.4 0.6 21
7:00 Light Freezing Drizzle 32 100 32 E 11 30.4 0.6 23
6:00 Light Snow 31   100 31 ENE 11 30.3 0.7 22
5:00 Fog 31   100 31 ENE 10 30.3 0.5 22
4:00 Fog 31   100 31 ENE 8 30.3 0.4 24
3:00 Fog 31   100 31 ENE 7 30.3 0.5 25
2:00 Mist 31   100 31 ENE 9 30.2 0.6 23
1:00 Mist 32 100 32 NE 9 30.2 6 24
00:00 Mostly Cloudy 32 96 31 NE 8 30.2 10 *
29 October 2014
23:00 Mostly Cloudy 35 92 33 NE 8 30.2 10 *
22:00 Cloudy 37 89 34 ENE 11 30.2 10 *
21:00 Mostly Cloudy 40 83 35 ENE 10 30.2 15 *
20:00 Partly Cloudy 41 77 35 ENE 6 30.2 15 *
19:00 Mainly Clear 42 74 35 NNE 6 30.1 15 *
18:00 Mainly Sunny 46 66 36 N 10 30.1 30 *
17:00 Mainly Sunny 53 52 35 N 10 30.1 30 *
16:00 Mainly Sunny 57   42 34 NW 8 30.0 30 *
15:00 Mainly Sunny 56 44 35 WNW 6 30.0 30 *
14:00 Partly Cloudy 55 45 34 WNW 9 30.0 30 *
13:00 Partly Cloudy 52 50 34 W 6 30.0 30 *
12:00 Mainly Sunny 50 55 34 WNW 11 30.0 30 *
N/A Not available
↑ Highest temperature
↓ Lowest temperature
* Value not significant.

If you require additional historical weather information, please visit Climate Data Online.

Date modified: